sensor_id;sensor_type;location;lat;lon;timestamp;P1;durP1;ratioP1;P2;durP2;ratioP2
26838;SDS011;40088;51.214;6.786;2023-11-21T00:05:19;18.42;;;13.07;;
26838;SDS011;40088;51.214;6.786;2023-11-21T00:15:19;19.90;;;12.60;;
26838;SDS011;40088;51.214;6.786;2023-11-21T00:25:20;12.90;;;9.25;;
26838;SDS011;40088;51.214;6.786;2023-11-21T00:35:20;17.42;;;11.45;;
26838;SDS011;40088;51.214;6.786;2023-11-21T00:45:20;15.98;;;11.70;;
26838;SDS011;40088;51.214;6.786;2023-11-21T00:55:21;14.13;;;8.77;;
26838;SDS011;40088;51.214;6.786;2023-11-21T01:05:22;14.93;;;9.00;;
26838;SDS011;40088;51.214;6.786;2023-11-21T01:15:22;13.93;;;8.95;;
26838;SDS011;40088;51.214;6.786;2023-11-21T01:25:22;17.40;;;8.93;;
26838;SDS011;40088;51.214;6.786;2023-11-21T01:35:23;14.38;;;8.38;;
26838;SDS011;40088;51.214;6.786;2023-11-21T01:45:23;16.48;;;9.80;;
26838;SDS011;40088;51.214;6.786;2023-11-21T01:55:25;13.73;;;9.43;;
26838;SDS011;40088;51.214;6.786;2023-11-21T02:05:27;13.30;;;8.35;;
26838;SDS011;40088;51.214;6.786;2023-11-21T02:15:27;12.05;;;8.35;;
26838;SDS011;40088;51.214;6.786;2023-11-21T02:25:29;17.73;;;10.60;;
26838;SDS011;40088;51.214;6.786;2023-11-21T02:35:31;18.53;;;11.17;;
26838;SDS011;40088;51.214;6.786;2023-11-21T02:45:32;13.02;;;8.02;;
26838;SDS011;40088;51.214;6.786;2023-11-21T02:55:32;19.38;;;10.07;;
26838;SDS011;40088;51.214;6.786;2023-11-21T03:15:37;9.85;;;7.38;;
26838;SDS011;40088;51.214;6.786;2023-11-21T03:25:37;14.82;;;10.38;;
26838;SDS011;40088;51.214;6.786;2023-11-21T03:35:37;13.30;;;8.18;;
26838;SDS011;40088;51.214;6.786;2023-11-21T03:45:38;15.98;;;10.05;;
26838;SDS011;40088;51.214;6.786;2023-11-21T03:55:40;12.77;;;9.15;;
26838;SDS011;40088;51.214;6.786;2023-11-21T04:05:40;15.23;;;10.45;;
26838;SDS011;40088;51.214;6.786;2023-11-21T04:15:41;15.48;;;9.98;;
26838;SDS011;40088;51.214;6.786;2023-11-21T04:25:41;15.07;;;9.88;;
26838;SDS011;40088;51.214;6.786;2023-11-21T04:35:42;12.40;;;8.35;;
26838;SDS011;40088;51.214;6.786;2023-11-21T04:45:42;14.73;;;9.15;;
26838;SDS011;40088;51.214;6.786;2023-11-21T04:55:42;15.98;;;11.30;;
26838;SDS011;40088;51.214;6.786;2023-11-21T05:05:43;15.30;;;9.60;;
26838;SDS011;40088;51.214;6.786;2023-11-21T05:15:44;17.00;;;10.98;;
26838;SDS011;40088;51.214;6.786;2023-11-21T05:25:45;14.82;;;8.95;;
26838;SDS011;40088;51.214;6.786;2023-11-21T05:35:46;13.53;;;10.23;;
26838;SDS011;40088;51.214;6.786;2023-11-21T05:45:48;18.55;;;12.15;;
26838;SDS011;40088;51.214;6.786;2023-11-21T05:55:48;16.48;;;10.45;;
26838;SDS011;40088;51.214;6.786;2023-11-21T06:05:49;20.40;;;11.50;;
26838;SDS011;40088;51.214;6.786;2023-11-21T06:15:49;17.23;;;11.30;;
26838;SDS011;40088;51.214;6.786;2023-11-21T06:25:50;20.45;;;14.27;;
26838;SDS011;40088;51.214;6.786;2023-11-21T06:35:51;17.15;;;11.65;;
26838;SDS011;40088;51.214;6.786;2023-11-21T06:45:51;18.80;;;12.43;;
26838;SDS011;40088;51.214;6.786;2023-11-21T06:55:51;21.48;;;17.10;;
26838;SDS011;40088;51.214;6.786;2023-11-21T07:05:51;20.23;;;13.88;;
26838;SDS011;40088;51.214;6.786;2023-11-21T07:15:52;19.38;;;13.65;;
26838;SDS011;40088;51.214;6.786;2023-11-21T07:25:52;18.58;;;13.07;;
26838;SDS011;40088;51.214;6.786;2023-11-21T07:35:52;18.50;;;12.23;;
26838;SDS011;40088;51.214;6.786;2023-11-21T07:45:53;22.58;;;15.35;;
26838;SDS011;40088;51.214;6.786;2023-11-21T07:55:53;22.83;;;15.18;;
26838;SDS011;40088;51.214;6.786;2023-11-21T08:05:53;32.75;;;18.38;;
26838;SDS011;40088;51.214;6.786;2023-11-21T08:15:54;28.58;;;18.17;;
26838;SDS011;40088;51.214;6.786;2023-11-21T08:25:56;27.13;;;16.60;;
26838;SDS011;40088;51.214;6.786;2023-11-21T08:35:56;25.00;;;16.40;;
26838;SDS011;40088;51.214;6.786;2023-11-21T08:45:57;27.50;;;18.17;;
26838;SDS011;40088;51.214;6.786;2023-11-21T08:55:57;30.20;;;17.67;;
26838;SDS011;40088;51.214;6.786;2023-11-21T09:05:58;26.48;;;16.15;;
26838;SDS011;40088;51.214;6.786;2023-11-21T09:15:59;30.60;;;18.38;;
26838;SDS011;40088;51.214;6.786;2023-11-21T09:26:00;26.50;;;16.93;;
26838;SDS011;40088;51.214;6.786;2023-11-21T09:36:00;30.23;;;18.70;;
26838;SDS011;40088;51.214;6.786;2023-11-21T09:46:01;29.35;;;17.50;;
26838;SDS011;40088;51.214;6.786;2023-11-21T09:56:02;32.08;;;18.63;;
26838;SDS011;40088;51.214;6.786;2023-11-21T10:06:02;28.73;;;18.42;;
26838;SDS011;40088;51.214;6.786;2023-11-21T10:16:05;28.17;;;17.33;;
26838;SDS011;40088;51.214;6.786;2023-11-21T10:26:11;36.20;;;20.65;;
26838;SDS011;40088;51.214;6.786;2023-11-21T10:36:25;27.17;;;16.65;;
26838;SDS011;40088;51.214;6.786;2023-11-21T10:46:27;28.85;;;17.42;;
26838;SDS011;40088;51.214;6.786;2023-11-21T10:56:27;33.15;;;18.10;;
26838;SDS011;40088;51.214;6.786;2023-11-21T11:16:32;28.67;;;18.48;;
26838;SDS011;40088;51.214;6.786;2023-11-21T11:26:39;27.27;;;17.17;;
26838;SDS011;40088;51.214;6.786;2023-11-21T11:36:48;30.08;;;17.38;;
26838;SDS011;40088;51.214;6.786;2023-11-21T11:46:52;28.58;;;17.35;;
26838;SDS011;40088;51.214;6.786;2023-11-21T11:56:52;27.55;;;17.55;;
26838;SDS011;40088;51.214;6.786;2023-11-21T12:06:54;33.63;;;20.35;;
26838;SDS011;40088;51.214;6.786;2023-11-21T12:16:56;28.08;;;18.85;;
26838;SDS011;40088;51.214;6.786;2023-11-21T12:26:56;38.78;;;22.75;;
26838;SDS011;40088;51.214;6.786;2023-11-21T12:36:57;40.72;;;25.20;;
26838;SDS011;40088;51.214;6.786;2023-11-21T12:46:57;42.00;;;25.98;;
26838;SDS011;40088;51.214;6.786;2023-11-21T12:56:59;44.58;;;27.58;;
26838;SDS011;40088;51.214;6.786;2023-11-21T13:07:03;47.45;;;29.80;;
26838;SDS011;40088;51.214;6.786;2023-11-21T13:17:13;48.45;;;31.05;;
26838;SDS011;40088;51.214;6.786;2023-11-21T13:27:13;57.13;;;35.90;;
26838;SDS011;40088;51.214;6.786;2023-11-21T13:37:15;49.30;;;32.15;;
26838;SDS011;40088;51.214;6.786;2023-11-21T13:47:15;52.38;;;31.13;;
26838;SDS011;40088;51.214;6.786;2023-11-21T13:57:15;48.58;;;32.10;;
26838;SDS011;40088;51.214;6.786;2023-11-21T14:07:16;48.33;;;30.23;;
26838;SDS011;40088;51.214;6.786;2023-11-21T14:17:31;53.75;;;33.00;;
26838;SDS011;40088;51.214;6.786;2023-11-21T14:27:32;46.85;;;31.48;;
26838;SDS011;40088;51.214;6.786;2023-11-21T14:37:34;46.45;;;29.10;;
26838;SDS011;40088;51.214;6.786;2023-11-21T14:47:35;48.13;;;30.40;;
26838;SDS011;40088;51.214;6.786;2023-11-21T14:57:38;36.65;;;27.15;;
26838;SDS011;40088;51.214;6.786;2023-11-21T15:07:39;32.22;;;22.98;;
26838;SDS011;40088;51.214;6.786;2023-11-21T15:17:39;30.35;;;21.95;;
26838;SDS011;40088;51.214;6.786;2023-11-21T15:27:42;31.38;;;22.60;;
26838;SDS011;40088;51.214;6.786;2023-11-21T15:37:43;24.38;;;19.98;;
26838;SDS011;40088;51.214;6.786;2023-11-21T15:47:45;26.58;;;21.00;;
26838;SDS011;40088;51.214;6.786;2023-11-21T15:57:45;26.55;;;20.10;;
26838;SDS011;40088;51.214;6.786;2023-11-21T16:07:45;26.77;;;22.10;;
26838;SDS011;40088;51.214;6.786;2023-11-21T16:17:46;20.38;;;16.27;;
26838;SDS011;40088;51.214;6.786;2023-11-21T16:27:46;18.45;;;15.45;;
26838;SDS011;40088;51.214;6.786;2023-11-21T16:37:46;20.77;;;16.85;;
26838;SDS011;40088;51.214;6.786;2023-11-21T16:47:48;19.55;;;16.27;;
26838;SDS011;40088;51.214;6.786;2023-11-21T16:57:49;17.95;;;15.75;;
26838;SDS011;40088;51.214;6.786;2023-11-21T17:07:51;13.77;;;11.85;;
26838;SDS011;40088;51.214;6.786;2023-11-21T17:17:51;14.95;;;11.82;;
26838;SDS011;40088;51.214;6.786;2023-11-21T17:37:56;12.43;;;10.30;;
26838;SDS011;40088;51.214;6.786;2023-11-21T17:47:56;12.38;;;10.20;;
26838;SDS011;40088;51.214;6.786;2023-11-21T17:57:56;14.13;;;11.18;;
26838;SDS011;40088;51.214;6.786;2023-11-21T18:07:59;13.38;;;10.60;;
26838;SDS011;40088;51.214;6.786;2023-11-21T18:18:00;12.55;;;10.45;;
26838;SDS011;40088;51.214;6.786;2023-11-21T18:28:00;15.88;;;12.60;;
26838;SDS011;40088;51.214;6.786;2023-11-21T18:38:00;13.32;;;10.65;;
26838;SDS011;40088;51.214;6.786;2023-11-21T18:48:00;13.98;;;10.88;;
26838;SDS011;40088;51.214;6.786;2023-11-21T18:58:01;11.45;;;9.52;;
26838;SDS011;40088;51.214;6.786;2023-11-21T19:08:01;11.38;;;9.73;;
26838;SDS011;40088;51.214;6.786;2023-11-21T19:18:02;11.98;;;9.70;;
26838;SDS011;40088;51.214;6.786;2023-11-21T19:28:03;12.15;;;10.10;;
26838;SDS011;40088;51.214;6.786;2023-11-21T19:38:07;13.20;;;10.77;;
26838;SDS011;40088;51.214;6.786;2023-11-21T19:48:08;16.45;;;11.65;;
26838;SDS011;40088;51.214;6.786;2023-11-21T19:58:09;14.55;;;11.07;;
26838;SDS011;40088;51.214;6.786;2023-11-21T20:08:10;11.57;;;8.80;;
26838;SDS011;40088;51.214;6.786;2023-11-21T20:18:11;12.07;;;10.60;;
26838;SDS011;40088;51.214;6.786;2023-11-21T20:28:11;11.45;;;8.00;;
26838;SDS011;40088;51.214;6.786;2023-11-21T20:38:13;12.38;;;10.07;;
26838;SDS011;40088;51.214;6.786;2023-11-21T20:48:14;13.32;;;10.52;;
26838;SDS011;40088;51.214;6.786;2023-11-21T20:58:15;11.40;;;9.68;;
26838;SDS011;40088;51.214;6.786;2023-11-21T21:08:16;11.05;;;8.43;;
26838;SDS011;40088;51.214;6.786;2023-11-21T21:18:16;10.45;;;8.23;;
26838;SDS011;40088;51.214;6.786;2023-11-21T21:28:16;12.07;;;9.80;;
26838;SDS011;40088;51.214;6.786;2023-11-21T21:38:18;9.93;;;8.52;;
26838;SDS011;40088;51.214;6.786;2023-11-21T21:48:18;11.10;;;9.27;;
26838;SDS011;40088;51.214;6.786;2023-11-21T21:58:18;11.27;;;9.43;;
26838;SDS011;40088;51.214;6.786;2023-11-21T22:08:19;13.75;;;12.15;;
26838;SDS011;40088;51.214;6.786;2023-11-21T22:18:19;11.15;;;8.50;;
26838;SDS011;40088;51.214;6.786;2023-11-21T22:28:19;11.68;;;9.50;;
26838;SDS011;40088;51.214;6.786;2023-11-21T22:38:20;11.40;;;9.77;;
26838;SDS011;40088;51.214;6.786;2023-11-21T22:48:20;11.30;;;8.77;;
26838;SDS011;40088;51.214;6.786;2023-11-21T22:58:20;13.07;;;10.38;;
26838;SDS011;40088;51.214;6.786;2023-11-21T23:08:21;13.60;;;11.90;;
26838;SDS011;40088;51.214;6.786;2023-11-21T23:18:21;14.02;;;11.70;;
26838;SDS011;40088;51.214;6.786;2023-11-21T23:28:27;11.70;;;10.40;;
26838;SDS011;40088;51.214;6.786;2023-11-21T23:38:27;12.10;;;8.88;;
26838;SDS011;40088;51.214;6.786;2023-11-21T23:48:28;10.88;;;9.05;;
26838;SDS011;40088;51.214;6.786;2023-11-21T23:58:29;10.80;;;9.32;;
